createdAt,value
2018-07-09T00:00:43.416Z,5.20
2018-07-09T00:03:12.133Z,5.73
2018-07-09T00:05:48.608Z,6.67
2018-07-09T00:08:17.164Z,5.40
2018-07-09T00:10:53.863Z,5.17
2018-07-09T00:13:22.106Z,4.83
2018-07-09T00:15:49.775Z,6.07
2018-07-09T00:18:17.392Z,5.37
2018-07-09T00:20:45.427Z,5.40
2018-07-09T00:23:13.701Z,5.27
2018-07-09T00:25:41.359Z,5.13
2018-07-09T00:28:08.948Z,4.90
2018-07-09T00:30:36.560Z,5.70
2018-07-09T00:33:04.395Z,5.60
2018-07-09T00:35:33.008Z,5.57
2018-07-09T00:38:00.592Z,5.83
2018-07-09T00:40:28.212Z,4.87
2018-07-09T00:42:56.471Z,5.30
2018-07-09T00:45:24.095Z,5.17
2018-07-09T00:47:51.733Z,5.07
2018-07-09T00:50:20.164Z,5.43
2018-07-09T00:52:49.221Z,4.83
2018-07-09T00:55:18.472Z,4.73
2018-07-09T00:57:46.646Z,5.20
2018-07-09T01:00:14.365Z,4.20
2018-07-09T01:02:42.612Z,5.30
2018-07-09T01:05:24.449Z,8.43
2018-07-09T01:07:52.227Z,4.77
2018-07-09T01:10:19.828Z,4.73
2018-07-09T01:12:47.432Z,5.40
2018-07-09T01:15:15.081Z,5.67
2018-07-09T01:17:42.743Z,4.60
2018-07-09T01:20:10.455Z,4.60
2018-07-09T01:22:38.164Z,4.80
2018-07-09T01:25:05.756Z,4.30
2018-07-09T01:27:33.364Z,4.60
2018-07-09T01:30:07.796Z,4.83
2018-07-09T01:32:36.152Z,4.60
2018-07-09T01:35:03.824Z,4.20
2018-07-09T01:37:31.404Z,5.10
2018-07-09T01:39:59.187Z,4.40
2018-07-09T01:42:26.835Z,5.23
2018-07-09T01:44:54.394Z,4.37
2018-07-09T01:47:21.975Z,5.60
2018-07-09T01:49:49.591Z,4.83
2018-07-09T01:52:17.159Z,4.97
2018-07-09T01:54:44.734Z,5.40
2018-07-09T01:57:12.437Z,5.20
2018-07-09T01:59:40.084Z,4.27
2018-07-09T02:02:07.747Z,4.67
2018-07-09T02:04:35.348Z,5.70
2018-07-09T02:07:03.090Z,7.07
2018-07-09T02:09:30.667Z,4.80
2018-07-09T02:11:58.256Z,4.10
2018-07-09T02:14:25.876Z,4.27
2018-07-09T02:16:53.417Z,4.07
2018-07-09T02:19:21.001Z,4.70
2018-07-09T02:21:48.589Z,4.83
2018-07-09T02:24:16.189Z,4.70
2018-07-09T02:26:43.840Z,4.53
2018-07-09T02:29:11.446Z,4.53
2018-07-09T02:31:39.019Z,4.43
2018-07-09T02:34:06.617Z,4.37
2018-07-09T02:36:34.221Z,4.33
2018-07-09T02:39:01.978Z,4.50
2018-07-09T02:41:29.576Z,5.07
2018-07-09T02:43:57.103Z,4.90
2018-07-09T02:46:24.764Z,5.53
2018-07-09T02:49:05.746Z,5.20
2018-07-09T02:51:36.910Z,6.27
2018-07-09T02:54:12.130Z,5.63
2018-07-09T02:56:39.745Z,8.93
2018-07-09T02:59:07.851Z,6.23
2018-07-09T03:01:40.074Z,7.10
2018-07-09T03:04:09.047Z,6.40
2018-07-09T03:06:37.497Z,7.50
2018-07-09T03:09:05.806Z,6.57
2018-07-09T03:11:33.552Z,6.20
2018-07-09T03:14:01.648Z,7.23
2018-07-09T03:16:29.875Z,6.10
2018-07-09T03:18:58.700Z,7.93
2018-07-09T03:21:27.862Z,7.40
2018-07-09T03:23:56.143Z,6.83
2018-07-09T03:26:23.816Z,7.30
2018-07-09T03:28:51.424Z,7.37
2018-07-09T03:31:25.611Z,6.60
2018-07-09T03:33:53.789Z,6.70
2018-07-09T03:36:21.413Z,6.80
2018-07-09T03:38:49.341Z,7.00
2018-07-09T03:41:16.859Z,8.17
2018-07-09T03:43:44.466Z,6.60
2018-07-09T03:46:11.941Z,6.73
2018-07-09T03:48:39.536Z,8.37
2018-07-09T03:51:07.173Z,6.60
2018-07-09T03:53:34.832Z,6.80
2018-07-09T03:56:03.292Z,7.97
2018-07-09T03:58:30.919Z,7.00
2018-07-09T04:00:58.483Z,6.60
2018-07-09T04:03:26.179Z,6.43
2018-07-09T04:05:53.753Z,6.93
2018-07-09T04:08:21.492Z,7.60
2018-07-09T04:10:49.086Z,7.67
2018-07-09T04:13:16.692Z,6.97
2018-07-09T04:15:44.259Z,7.13
2018-07-09T04:18:11.891Z,8.43
2018-07-09T04:20:42.522Z,6.07
2018-07-09T04:23:21.080Z,6.70
2018-07-09T04:29:29.600Z,7.83
2018-07-09T04:32:00.781Z,6.60
2018-07-09T04:34:28.506Z,7.00
2018-07-09T04:36:56.221Z,7.80
2018-07-09T04:39:23.864Z,8.50
2018-07-09T04:41:51.542Z,7.10
2018-07-09T04:44:19.133Z,7.43
2018-07-09T04:46:46.771Z,9.00
2018-07-09T04:49:14.378Z,7.20
2018-07-09T04:51:46.545Z,7.53
2018-07-09T04:54:14.338Z,8.30
2018-07-09T04:56:42.850Z,8.40
2018-07-09T04:59:11.297Z,8.63
2018-07-09T05:01:38.885Z,7.03
2018-07-09T05:04:06.504Z,8.53
2018-07-09T05:06:34.103Z,7.73
2018-07-09T05:09:01.681Z,11.03
2018-07-09T05:11:29.257Z,9.03
2018-07-09T05:13:56.840Z,8.63
2018-07-09T05:16:24.432Z,8.87
2018-07-09T05:18:51.975Z,7.53
2018-07-09T05:21:19.682Z,8.60
2018-07-09T05:23:47.287Z,6.90
2018-07-09T05:26:14.936Z,7.97
2018-07-09T05:28:42.528Z,8.23
2018-07-09T05:31:10.126Z,6.63
2018-07-09T05:33:38.320Z,8.40
2018-07-09T05:36:08.596Z,7.80
2018-07-09T05:38:37.097Z,8.90
2018-07-09T05:41:04.748Z,8.43
2018-07-09T05:43:32.334Z,7.83
2018-07-09T05:45:59.964Z,7.40
2018-07-09T05:48:27.623Z,7.60
2018-07-09T05:50:55.257Z,9.33
2018-07-09T05:53:22.895Z,7.70
2018-07-09T05:55:50.504Z,7.30
2018-07-09T05:58:18.081Z,7.73
2018-07-09T06:00:45.746Z,8.70
2018-07-09T06:03:13.962Z,7.30
2018-07-09T06:05:42.114Z,8.53
2018-07-09T06:08:09.742Z,7.57
2018-07-09T06:10:37.377Z,9.10
2018-07-09T06:13:05.565Z,8.90
2018-07-09T06:15:33.202Z,7.93
2018-07-09T06:18:00.851Z,7.40
2018-07-09T06:20:28.444Z,8.73
2018-07-09T06:22:56.576Z,7.40
2018-07-09T06:29:26.606Z,8.27
2018-07-09T06:31:59.845Z,6.90
2018-07-09T06:34:35.277Z,8.67
2018-07-09T06:37:12.758Z,7.63
2018-07-09T06:39:47.622Z,6.83
2018-07-09T06:42:15.288Z,7.33
2018-07-09T06:47:56.404Z,7.40
2018-07-09T06:50:24.024Z,6.00
2018-07-09T06:52:54.131Z,5.33
2018-07-09T06:55:22.475Z,5.90
2018-07-09T06:57:50.842Z,5.50
2018-07-09T07:00:18.448Z,6.90
2018-07-09T07:02:46.109Z,7.73
2018-07-09T07:05:13.781Z,6.03
2018-07-09T07:07:41.377Z,6.87
2018-07-09T07:10:09.032Z,8.23
2018-07-09T07:12:37.287Z,6.80
2018-07-09T07:15:11.685Z,8.63
2018-07-09T07:17:39.901Z,5.90
2018-07-09T07:20:08.852Z,6.90
2018-07-09T07:22:36.731Z,6.83
2018-07-09T07:25:04.858Z,6.90
2018-07-09T07:27:32.480Z,8.77
2018-07-09T07:30:01.113Z,6.73
2018-07-09T07:32:28.678Z,10.30
2018-07-09T07:34:56.213Z,5.80
2018-07-09T07:37:24.797Z,5.43
2018-07-09T07:39:52.407Z,6.90
2018-07-09T07:42:19.864Z,7.27
2018-07-09T07:44:48.465Z,7.07
2018-07-09T07:47:16.068Z,6.37
2018-07-09T07:49:43.697Z,7.20
2018-07-09T07:52:11.440Z,7.43
2018-07-09T07:54:39.214Z,6.20
2018-07-09T07:57:06.947Z,6.90
2018-07-09T07:59:34.608Z,7.00
2018-07-09T08:02:02.335Z,6.60
2018-07-09T08:04:29.985Z,6.83
2018-07-09T08:06:57.599Z,7.37
2018-07-09T08:09:25.360Z,6.43
2018-07-09T08:11:53.006Z,6.20
2018-07-09T08:14:20.632Z,8.23
2018-07-09T08:16:48.310Z,7.80
2018-07-09T08:19:15.984Z,6.93
2018-07-09T08:21:43.602Z,11.90
2018-07-09T08:24:11.246Z,7.00
2018-07-09T08:26:38.874Z,7.17
2018-07-09T08:29:06.493Z,7.53
2018-07-09T08:31:34.119Z,8.17
2018-07-09T08:34:01.794Z,7.40
2018-07-09T08:36:29.419Z,15.00
2018-07-09T08:38:57.032Z,7.53
2018-07-09T08:41:25.366Z,6.90
2018-07-09T08:43:53.000Z,7.70
2018-07-09T08:46:20.676Z,8.13
2018-07-09T08:48:48.292Z,6.67
2018-07-09T08:51:15.934Z,6.50
2018-07-09T08:53:43.556Z,6.83
2018-07-09T08:56:11.154Z,8.43
2018-07-09T08:58:38.797Z,7.20
2018-07-09T09:01:07.303Z,6.73
2018-07-09T09:03:34.919Z,7.07
2018-07-09T09:06:02.620Z,7.23
2018-07-09T09:08:30.265Z,7.70
2018-07-09T09:10:57.819Z,6.30
2018-07-09T09:13:25.476Z,6.10
2018-07-09T09:15:53.096Z,6.63
2018-07-09T09:18:20.764Z,7.27
2018-07-09T09:20:48.775Z,7.00
2018-07-09T09:23:16.355Z,6.20
2018-07-09T09:25:43.976Z,7.40
2018-07-09T09:28:11.627Z,6.60
2018-07-09T09:30:39.268Z,6.37
2018-07-09T09:33:06.918Z,6.67
2018-07-09T09:35:34.574Z,6.00
2018-07-09T09:38:02.180Z,6.27
2018-07-09T09:40:29.783Z,6.83
2018-07-09T09:42:57.478Z,7.20
2018-07-09T09:45:25.073Z,6.37
2018-07-09T09:47:52.694Z,7.53
2018-07-09T09:50:20.313Z,6.07
2018-07-09T09:52:47.931Z,5.47
2018-07-09T09:55:15.520Z,5.93
2018-07-09T09:57:43.195Z,5.63
2018-07-09T10:00:10.906Z,6.53
2018-07-09T10:02:38.456Z,5.20
2018-07-09T10:05:06.131Z,5.60
2018-07-09T10:07:33.819Z,7.67
2018-07-09T10:10:01.450Z,6.30
2018-07-09T10:12:29.101Z,6.00
2018-07-09T10:14:56.760Z,6.73
2018-07-09T10:17:24.334Z,6.40
2018-07-09T10:19:52.034Z,6.40
2018-07-09T10:22:19.636Z,6.27
2018-07-09T10:24:47.280Z,6.30
2018-07-09T10:27:14.989Z,7.33
2018-07-09T10:29:42.570Z,6.03
2018-07-09T10:32:10.440Z,6.23
2018-07-09T10:34:37.995Z,7.20
2018-07-09T10:37:05.612Z,5.30
2018-07-09T10:39:33.854Z,5.33
2018-07-09T10:42:01.573Z,4.97
2018-07-09T10:44:30.976Z,6.53
2018-07-09T10:46:58.641Z,5.07
2018-07-09T10:49:26.233Z,5.13
2018-07-09T10:51:53.937Z,5.17
2018-07-09T10:54:21.521Z,5.77
2018-07-09T10:56:49.123Z,4.93
2018-07-09T10:59:16.768Z,5.57
2018-07-09T11:01:44.424Z,4.90
2018-07-09T11:04:12.060Z,5.27
2018-07-09T11:06:39.754Z,15.83
2018-07-09T11:09:07.608Z,5.57
2018-07-09T11:11:35.705Z,4.87
2018-07-09T11:14:03.787Z,4.87
2018-07-09T11:16:31.415Z,5.87
2018-07-09T11:18:59.099Z,4.10
2018-07-09T11:21:26.793Z,4.27
2018-07-09T11:23:54.455Z,4.27
2018-07-09T11:26:22.045Z,4.47
2018-07-09T11:28:49.698Z,4.43
2018-07-09T11:31:17.334Z,4.13
2018-07-09T11:33:44.984Z,4.00
2018-07-09T11:36:12.653Z,3.93
2018-07-09T11:38:40.219Z,4.23
2018-07-09T11:41:07.881Z,4.87
2018-07-09T11:44:11.663Z,5.23
2018-07-09T11:46:39.309Z,3.77
2018-07-09T11:49:06.774Z,3.50
2018-07-09T11:51:42.369Z,3.93
2018-07-09T11:54:11.440Z,3.90
2018-07-09T11:56:39.231Z,3.97
2018-07-09T11:59:06.847Z,3.90
2018-07-09T12:01:34.447Z,3.00
2018-07-09T12:04:02.084Z,4.10
2018-07-09T12:06:29.750Z,3.60
2018-07-09T12:08:57.373Z,4.30
2018-07-09T12:11:25.294Z,3.77
2018-07-09T12:13:52.964Z,3.87
2018-07-09T12:16:20.630Z,3.57
2018-07-09T12:18:48.293Z,4.40
2018-07-09T12:21:15.919Z,4.80
2018-07-09T12:23:43.612Z,4.30
2018-07-09T12:26:11.240Z,4.63
2018-07-09T12:28:39.372Z,4.15
2018-07-09T12:31:07.092Z,3.92
2018-07-09T12:33:34.700Z,4.87
2018-07-09T12:36:02.728Z,3.75
2018-07-09T12:38:30.360Z,3.98
2018-07-09T12:40:58.066Z,4.28
2018-07-09T12:43:25.696Z,3.87
2018-07-09T12:45:53.280Z,4.22
2018-07-09T12:48:20.896Z,3.85
2018-07-09T12:50:48.579Z,4.15
2018-07-09T12:53:16.197Z,3.95
2018-07-09T12:55:44.620Z,4.08
2018-07-09T12:58:12.242Z,4.40
2018-07-09T13:00:39.862Z,4.15
2018-07-09T13:03:07.521Z,4.00
2018-07-09T13:05:35.638Z,4.30
2018-07-09T13:08:03.358Z,3.60
2018-07-09T13:10:31.031Z,4.03
2018-07-09T13:12:58.630Z,4.57
2018-07-09T13:15:26.237Z,4.70
2018-07-09T13:17:53.886Z,4.50
2018-07-09T13:20:21.477Z,5.30
2018-07-09T13:22:49.142Z,4.97
2018-07-09T13:25:16.748Z,5.27
2018-07-09T13:27:44.421Z,5.10
2018-07-09T13:30:11.999Z,4.97
2018-07-09T13:32:39.698Z,6.27
2018-07-09T13:35:07.289Z,5.03
2018-07-09T13:37:34.802Z,5.73
2018-07-09T13:40:02.508Z,5.43
2018-07-09T13:42:30.128Z,5.37
2018-07-09T13:44:57.795Z,5.50
2018-07-09T13:47:25.507Z,6.40
2018-07-09T13:49:53.358Z,5.63
2018-07-09T13:52:20.964Z,5.17
2018-07-09T13:54:48.689Z,5.80
2018-07-09T13:57:16.375Z,6.20
2018-07-09T13:59:44.002Z,5.83
2018-07-09T14:02:11.648Z,4.97
2018-07-09T14:04:39.272Z,5.90
2018-07-09T14:07:06.894Z,5.80
2018-07-09T14:09:34.524Z,4.93
2018-07-09T14:12:02.136Z,5.43
2018-07-09T14:14:29.808Z,4.93
2018-07-09T14:16:57.435Z,6.50
2018-07-09T14:20:37.689Z,6.43
2018-07-09T14:23:06.229Z,6.23
2018-07-09T14:25:33.919Z,5.30
2018-07-09T14:28:01.589Z,6.33
2018-07-09T14:30:29.257Z,6.50
2018-07-09T14:32:56.914Z,6.00
2018-07-09T14:35:24.593Z,5.80
2018-07-09T14:37:52.220Z,6.07
2018-07-09T14:40:19.921Z,6.53
2018-07-09T14:42:47.589Z,6.77
2018-07-09T14:45:15.263Z,6.57
2018-07-09T14:47:42.889Z,6.87
2018-07-09T14:50:10.501Z,6.37
2018-07-09T14:52:38.076Z,7.17
2018-07-09T14:55:05.737Z,8.23
2018-07-09T14:57:33.304Z,6.90
2018-07-09T15:00:00.950Z,6.07
2018-07-09T15:02:28.659Z,6.67
2018-07-09T15:04:56.267Z,5.83
2018-07-09T15:07:24.128Z,7.33
2018-07-09T15:09:51.868Z,7.43
2018-07-09T15:12:19.534Z,7.13
2018-07-09T15:14:47.132Z,6.17
2018-07-09T15:17:14.815Z,6.97
2018-07-09T15:19:42.529Z,6.37
2018-07-09T15:22:10.121Z,5.90
2018-07-09T15:24:37.799Z,6.80
2018-07-09T15:27:05.401Z,6.97
2018-07-09T15:29:32.973Z,6.67
2018-07-09T15:32:11.933Z,5.60
2018-07-09T15:34:40.056Z,6.40
2018-07-09T15:37:07.713Z,6.33
2018-07-09T15:39:35.518Z,7.00
2018-07-09T15:42:03.186Z,6.73
2018-07-09T15:44:30.771Z,6.17
2018-07-09T15:46:58.617Z,7.30
2018-07-09T15:49:26.592Z,6.50
2018-07-09T15:51:54.296Z,5.37
2018-07-09T15:54:21.927Z,6.67
2018-07-09T15:56:49.512Z,6.03
2018-07-09T15:59:17.173Z,5.70
2018-07-09T16:01:44.836Z,6.87
2018-07-09T16:04:12.492Z,6.13
2018-07-09T16:06:40.099Z,6.43
2018-07-09T16:09:07.817Z,6.03
2018-07-09T16:11:35.556Z,7.17
2018-07-09T16:14:03.368Z,5.80
2018-07-09T16:16:31.041Z,6.30
2018-07-09T16:18:58.618Z,5.83
2018-07-09T16:21:26.499Z,6.73
2018-07-09T16:23:54.101Z,5.87
2018-07-09T16:26:21.796Z,6.23
2018-07-09T16:28:49.579Z,6.37
2018-07-09T16:31:17.177Z,6.20
2018-07-09T16:33:44.828Z,5.90
2018-07-09T16:36:12.521Z,6.37
2018-07-09T16:38:40.128Z,6.20
2018-07-09T16:41:07.919Z,5.70
2018-07-09T16:43:35.581Z,5.87
2018-07-09T16:46:03.399Z,5.93
2018-07-09T16:48:31.017Z,5.83
2018-07-09T16:50:58.712Z,5.60
2018-07-09T16:53:26.407Z,5.33
2018-07-09T16:55:54.064Z,5.20
2018-07-09T16:58:21.824Z,4.67
2018-07-09T17:00:49.573Z,4.73
2018-07-09T17:03:17.271Z,4.73
2018-07-09T17:05:44.852Z,5.47
2018-07-09T17:08:12.510Z,5.53
2018-07-09T17:10:40.256Z,4.73
2018-07-09T17:13:07.906Z,4.30
2018-07-09T17:15:35.879Z,5.50
2018-07-09T17:18:03.686Z,4.23
2018-07-09T17:20:31.774Z,5.50
2018-07-09T17:22:59.328Z,4.47
2018-07-09T17:25:27.040Z,3.87
2018-07-09T17:27:55.418Z,4.10
2018-07-09T17:30:23.465Z,3.33
2018-07-09T17:32:51.146Z,3.00
2018-07-09T17:35:18.798Z,3.37
2018-07-09T17:37:46.482Z,3.70
2018-07-09T17:40:14.259Z,3.77
2018-07-09T17:42:41.881Z,3.67
2018-07-09T17:45:09.501Z,3.40
2018-07-09T17:47:37.135Z,2.83
2018-07-09T17:50:05.126Z,3.60
2018-07-09T17:52:32.808Z,3.17
2018-07-09T17:55:00.506Z,3.60
2018-07-09T17:57:28.250Z,3.20
2018-07-09T17:59:55.887Z,3.50
2018-07-09T18:02:23.590Z,3.73
2018-07-09T18:04:51.214Z,3.23
2018-07-09T18:07:18.870Z,3.70
2018-07-09T18:09:46.544Z,3.47
2018-07-09T18:12:14.223Z,4.00
2018-07-09T18:14:41.962Z,2.93
2018-07-09T18:17:10.110Z,4.23
2018-07-09T18:19:37.848Z,3.40
2018-07-09T18:22:06.081Z,3.80
2018-07-09T18:24:33.760Z,3.43
2018-07-09T18:27:01.432Z,4.33
2018-07-09T18:29:29.286Z,3.50
2018-07-09T18:31:56.957Z,4.53
2018-07-09T18:34:24.663Z,3.07
2018-07-09T18:36:52.593Z,4.00
2018-07-09T18:39:20.368Z,4.00
2018-07-09T18:41:48.050Z,6.50
2018-07-09T18:44:15.724Z,4.60
2018-07-09T18:46:43.396Z,4.40
2018-07-09T18:49:11.095Z,4.07
2018-07-09T18:51:38.820Z,4.20
2018-07-09T18:54:07.054Z,3.87
2018-07-09T18:56:35.578Z,5.40
2018-07-09T18:59:03.163Z,3.90
2018-07-09T19:01:30.872Z,4.70
2018-07-09T19:03:58.638Z,4.13
2018-07-09T19:07:05.827Z,3.77
2018-07-09T19:09:34.230Z,4.33
2018-07-09T19:12:02.734Z,4.00
2018-07-09T19:14:32.541Z,3.47
2018-07-09T19:18:15.901Z,3.70
2018-07-09T19:21:54.911Z,4.67
2018-07-09T19:24:21.592Z,3.70
2018-07-09T19:26:48.292Z,4.23
2018-07-09T19:29:14.850Z,4.10
2018-07-09T19:31:41.389Z,3.83
2018-07-09T19:34:07.962Z,4.00
2018-07-09T19:36:34.584Z,3.83
2018-07-09T19:39:01.087Z,3.27
2018-07-09T19:41:28.512Z,3.67
2018-07-09T19:43:55.026Z,3.97
2018-07-09T19:46:21.622Z,3.90
2018-07-09T19:48:48.202Z,3.70
2018-07-09T19:51:14.718Z,3.77
2018-07-09T19:53:41.267Z,3.63
2018-07-09T19:56:07.821Z,3.43
2018-07-09T19:58:34.326Z,5.87
2018-07-09T20:01:00.876Z,3.60
2018-07-09T20:03:27.526Z,4.30
2018-07-09T20:05:54.047Z,3.60
2018-07-09T20:08:20.577Z,4.77
2018-07-09T20:10:52.736Z,3.33
2018-07-09T20:13:24.797Z,4.63
2018-07-09T20:15:56.959Z,4.40
2018-07-09T20:18:23.462Z,2.87
2018-07-09T20:20:50.037Z,3.90
2018-07-09T20:23:16.594Z,3.47
2018-07-09T20:25:43.132Z,5.77
2018-07-09T20:28:10.130Z,3.70
2018-07-09T20:30:36.679Z,3.33
2018-07-09T20:33:04.068Z,3.30
2018-07-09T20:35:30.569Z,3.30
2018-07-09T20:37:57.106Z,3.17
2018-07-09T20:40:23.619Z,2.87
2018-07-09T20:42:50.109Z,3.83
2018-07-09T20:45:16.660Z,3.27
2018-07-09T20:47:43.184Z,3.40
2018-07-09T20:50:09.723Z,3.70
2018-07-09T20:52:36.254Z,3.20
2018-07-09T20:55:02.803Z,3.30
2018-07-09T20:57:29.308Z,3.57
2018-07-09T20:59:55.797Z,3.77
2018-07-09T21:02:22.318Z,3.83
2018-07-09T21:04:48.874Z,3.50
2018-07-09T21:07:15.391Z,3.30
2018-07-09T21:09:42.028Z,3.10
2018-07-09T21:12:09.312Z,3.90
2018-07-09T21:14:35.865Z,3.60
2018-07-09T21:17:02.349Z,2.87
2018-07-09T21:19:28.914Z,2.70
2018-07-09T21:21:55.502Z,2.93
2018-07-09T21:24:22.011Z,3.27
2018-07-09T21:26:48.532Z,3.30
2018-07-09T21:29:15.028Z,4.90
2018-07-09T21:31:41.551Z,3.50
2018-07-09T21:34:08.072Z,2.63
2018-07-09T21:36:34.587Z,2.50
2018-07-09T21:39:01.085Z,1.97
2018-07-09T21:41:27.627Z,3.37
2018-07-09T21:43:54.125Z,3.20
2018-07-09T21:46:20.621Z,2.70
2018-07-09T21:48:47.176Z,5.93
2018-07-09T21:51:13.668Z,2.50
2018-07-09T21:53:40.180Z,2.30
2018-07-09T21:56:06.685Z,2.63
2018-07-09T21:58:33.199Z,2.77
2018-07-09T22:00:59.732Z,2.87
2018-07-09T22:03:26.199Z,2.97
2018-07-09T22:05:52.702Z,2.80
2018-07-09T22:08:19.194Z,2.27
2018-07-09T22:10:45.665Z,4.80
2018-07-09T22:13:12.158Z,3.00
2018-07-09T22:15:38.663Z,2.73
2018-07-09T22:18:05.166Z,3.10
2018-07-09T22:20:31.699Z,2.93
2018-07-09T22:22:58.186Z,3.13
2018-07-09T22:25:24.665Z,2.93
2018-07-09T22:27:51.165Z,2.90
2018-07-09T22:30:26.809Z,2.60
2018-07-09T22:32:54.404Z,2.87
2018-07-09T22:35:21.971Z,3.30
2018-07-09T22:37:49.587Z,2.43
2018-07-09T22:40:17.209Z,2.87
2018-07-09T22:42:44.775Z,2.87
2018-07-09T22:45:12.373Z,2.90
2018-07-09T22:47:40.062Z,3.10
2018-07-09T22:50:07.734Z,4.87
2018-07-09T22:52:35.312Z,3.87
2018-07-09T22:55:14.278Z,4.57
2018-07-09T22:57:41.908Z,2.97
2018-07-09T23:00:09.508Z,3.50
2018-07-09T23:02:37.128Z,3.37
2018-07-09T23:05:04.822Z,3.20
2018-07-09T23:07:35.789Z,3.37
2018-07-09T23:10:14.711Z,3.37
2018-07-09T23:16:00.091Z,3.40
2018-07-09T23:19:05.059Z,2.80
2018-07-09T23:21:44.589Z,3.67
2018-07-09T23:24:11.628Z,3.70
2018-07-09T23:26:38.093Z,3.73
2018-07-09T23:29:04.683Z,4.07
2018-07-09T23:31:31.174Z,3.27
2018-07-09T23:33:57.673Z,3.40
2018-07-09T23:36:24.173Z,3.93
2018-07-09T23:38:51.449Z,3.80
2018-07-09T23:41:17.947Z,3.37
2018-07-09T23:43:44.497Z,3.00
2018-07-09T23:46:11.043Z,3.80
2018-07-09T23:48:37.534Z,4.57
2018-07-09T23:51:04.049Z,3.23
2018-07-09T23:53:30.867Z,3.50
2018-07-09T23:56:18.950Z,3.80
2018-07-09T23:59:22.717Z,4.93
